createdAt,value
2022-12-18T00:02:02.068Z,101883.98
2022-12-18T00:04:32.757Z,101879.88
2022-12-18T00:07:03.856Z,101881.09
2022-12-18T00:09:39.800Z,101878.00
2022-12-18T00:14:49.486Z,101871.23
2022-12-18T00:17:20.304Z,101863.28
2022-12-18T00:19:50.736Z,101855.05
2022-12-18T00:22:21.259Z,101860.67
2022-12-18T00:24:51.876Z,101866.42
2022-12-18T00:27:22.573Z,101861.92
2022-12-18T00:29:52.929Z,101869.12
2022-12-18T00:32:23.327Z,101866.24
2022-12-18T00:34:53.835Z,101866.76
2022-12-18T00:37:24.620Z,101866.17
2022-12-18T00:39:55.070Z,101874.06
2022-12-18T00:42:43.125Z,101876.98
2022-12-18T00:45:13.811Z,101879.34
2022-12-18T00:47:44.339Z,101877.77
2022-12-18T00:50:14.867Z,101876.58
2022-12-18T00:52:45.713Z,101879.98
2022-12-18T00:55:16.822Z,101886.90
2022-12-18T00:57:47.594Z,101888.12
2022-12-18T01:00:19.450Z,101888.29
2022-12-18T01:02:52.411Z,101885.95
2022-12-18T01:05:25.497Z,101886.80
2022-12-18T01:07:57.072Z,101885.52
2022-12-18T01:10:28.153Z,101883.10
2022-12-18T01:13:01.569Z,101882.04
2022-12-18T01:15:32.271Z,101877.80
2022-12-18T01:18:03.086Z,101877.23
2022-12-18T01:20:33.730Z,101876.29
2022-12-18T01:23:04.288Z,101875.58
2022-12-18T01:25:34.967Z,101868.02
2022-12-18T01:28:05.664Z,101867.13
2022-12-18T01:30:36.175Z,101868.51
2022-12-18T01:33:07.675Z,101867.13
2022-12-18T01:35:45.059Z,101868.33
2022-12-18T01:38:15.575Z,101871.66
2022-12-18T01:40:46.043Z,101878.53
2022-12-18T01:43:16.450Z,101883.90
2022-12-18T01:45:47.177Z,101883.83
2022-12-18T01:48:17.723Z,101883.70
2022-12-18T01:50:48.143Z,101882.48
2022-12-18T01:53:23.253Z,101893.02
2022-12-18T01:55:56.626Z,101891.27
2022-12-18T01:58:34.834Z,101894.23
2022-12-18T02:01:05.507Z,101896.20
2022-12-18T02:03:37.177Z,101889.57
2022-12-18T02:06:15.703Z,101887.11
2022-12-18T02:08:59.370Z,101888.08
2022-12-18T02:11:41.873Z,101885.71
2022-12-18T02:14:25.394Z,101883.20
2022-12-18T02:17:07.251Z,101889.14
2022-12-18T02:20:03.752Z,101897.78
2022-12-18T02:22:45.703Z,101912.52
2022-12-18T02:25:36.217Z,101913.95
2022-12-18T02:28:10.373Z,101909.79
2022-12-18T02:30:43.292Z,101898.02
2022-12-18T02:33:15.640Z,101893.02
2022-12-18T02:35:49.557Z,101899.13
2022-12-18T02:38:20.650Z,101900.04
2022-12-18T02:40:55.170Z,101891.64
2022-12-18T02:43:26.141Z,101882.16
2022-12-18T02:46:00.048Z,101867.41
2022-12-18T02:48:35.172Z,101870.06
2022-12-18T02:51:13.296Z,101865.81
2022-12-18T02:53:52.384Z,101860.36
2022-12-18T02:56:28.546Z,101859.08
2022-12-18T02:59:04.099Z,101852.95
2022-12-18T03:01:59.611Z,101839.04
2022-12-18T03:04:39.443Z,101838.06
2022-12-18T03:07:16.747Z,101852.17
2022-12-18T03:09:52.158Z,101864.27
2022-12-18T03:12:26.719Z,101859.80
2022-12-18T03:15:06.695Z,101860.48
2022-12-18T03:17:39.001Z,101866.92
2022-12-18T03:20:15.247Z,101876.94
2022-12-18T03:22:49.230Z,101894.73
2022-12-18T03:25:21.572Z,101901.33
2022-12-18T03:27:57.812Z,101904.92
2022-12-18T03:30:31.735Z,101906.41
2022-12-18T03:33:09.927Z,101900.38
2022-12-18T03:35:44.861Z,101896.33
2022-12-18T03:38:16.217Z,101877.42
2022-12-18T03:40:59.088Z,101864.19
2022-12-18T03:43:38.320Z,101858.93
2022-12-18T03:46:15.629Z,101862.39
2022-12-18T03:48:50.620Z,101882.36
2022-12-18T03:51:28.967Z,101884.17
2022-12-18T03:54:02.662Z,101873.41
2022-12-18T03:56:44.256Z,101867.92
2022-12-18T03:59:17.334Z,101869.77
2022-12-18T04:01:51.730Z,101871.91
2022-12-18T04:04:25.514Z,101864.92
2022-12-18T04:06:57.687Z,101865.58
2022-12-18T04:09:29.521Z,101860.92
2022-12-18T04:12:00.048Z,101872.56
2022-12-18T04:14:30.579Z,101884.70
2022-12-18T04:17:01.292Z,101888.06
2022-12-18T04:19:34.327Z,101884.25
2022-12-18T04:22:05.577Z,101875.08
2022-12-18T04:24:40.801Z,101877.21
2022-12-18T04:27:16.879Z,101874.27
2022-12-18T04:29:51.424Z,101866.74
2022-12-18T04:32:21.375Z,101867.56
2022-12-18T04:34:52.102Z,101866.09
2022-12-18T04:37:22.606Z,101862.33
2022-12-18T04:39:51.979Z,101860.95
2022-12-18T04:42:28.344Z,101859.25
2022-12-18T04:44:58.764Z,101863.65
2022-12-18T04:47:29.138Z,101858.83
2022-12-18T04:49:59.686Z,101858.23
2022-12-18T04:52:30.228Z,101858.55
2022-12-18T04:55:00.746Z,101861.39
2022-12-18T04:57:31.241Z,101871.20
2022-12-18T05:00:01.660Z,101869.69
2022-12-18T05:02:32.232Z,101863.65
2022-12-18T05:05:02.778Z,101867.48
2022-12-18T05:07:33.139Z,101866.40
2022-12-18T05:10:03.566Z,101869.19
2022-12-18T05:12:34.341Z,101870.16
2022-12-18T05:15:08.752Z,101875.58
2022-12-18T05:17:39.172Z,101875.83
2022-12-18T05:20:11.099Z,101884.20
2022-12-18T05:22:41.619Z,101889.71
2022-12-18T05:25:12.417Z,101893.41
2022-12-18T05:27:43.275Z,101901.14
2022-12-18T05:30:15.886Z,101903.66
2022-12-18T05:32:46.376Z,101904.84
2022-12-18T05:35:16.879Z,101908.70
2022-12-18T05:37:47.325Z,101899.73
2022-12-18T05:40:18.702Z,101896.76
2022-12-18T05:42:49.150Z,101889.23
2022-12-18T05:45:21.327Z,101892.17
2022-12-18T05:47:51.784Z,101887.91
2022-12-18T05:50:22.156Z,101889.66
2022-12-18T05:52:52.620Z,101893.39
2022-12-18T05:55:23.179Z,101890.30
2022-12-18T05:57:54.342Z,101884.54
2022-12-18T06:00:24.883Z,101880.07
2022-12-18T06:02:58.173Z,101874.18
2022-12-18T06:05:28.680Z,101876.66
2022-12-18T06:07:59.047Z,101877.63
2022-12-18T06:10:29.410Z,101884.89
2022-12-18T06:12:59.879Z,101883.96
2022-12-18T06:15:30.257Z,101886.79
2022-12-18T06:18:02.543Z,101890.27
2022-12-18T06:20:37.568Z,101888.15
2022-12-18T06:23:08.356Z,101890.98
2022-12-18T06:25:42.380Z,101895.81
2022-12-18T06:28:12.829Z,101904.48
2022-12-18T06:30:45.105Z,101912.90
2022-12-18T06:33:16.295Z,101915.55
2022-12-18T06:35:46.777Z,101916.21
2022-12-18T06:38:17.243Z,101916.73
2022-12-18T06:40:47.543Z,101921.52
2022-12-18T06:43:17.953Z,101924.36
2022-12-18T06:45:53.614Z,101926.15
2022-12-18T06:48:24.406Z,101923.41
2022-12-18T06:50:54.857Z,101926.09
2022-12-18T06:53:25.178Z,101929.49
2022-12-18T06:56:05.069Z,101930.19
2022-12-18T06:58:38.394Z,101937.99
2022-12-18T07:01:12.001Z,101942.35
2022-12-18T07:03:44.584Z,101950.23
2022-12-18T07:06:20.225Z,101956.34
2022-12-18T07:08:52.268Z,101954.21
2022-12-18T07:11:22.919Z,101965.63
2022-12-18T07:13:54.462Z,101971.52
2022-12-18T07:16:26.108Z,101972.89
2022-12-18T07:18:58.229Z,101976.20
2022-12-18T07:21:28.992Z,101975.40
2022-12-18T07:24:00.327Z,101974.54
2022-12-18T07:26:31.210Z,101975.42
2022-12-18T07:29:00.506Z,101978.84
2022-12-18T07:31:31.170Z,101973.88
2022-12-18T07:34:00.362Z,101968.53
2022-12-18T07:36:30.712Z,101968.70
2022-12-18T07:39:05.384Z,101967.40
2022-12-18T07:41:35.734Z,101964.17
2022-12-18T07:44:13.635Z,101962.38
2022-12-18T07:46:43.967Z,101957.84
2022-12-18T07:49:14.415Z,101951.26
2022-12-18T07:51:47.041Z,101948.87
2022-12-18T07:54:17.507Z,101944.98
2022-12-18T07:56:47.876Z,101945.95
2022-12-18T07:59:18.596Z,101946.40
2022-12-18T08:01:49.077Z,101949.09
2022-12-18T08:04:19.656Z,101943.90
2022-12-18T08:06:51.585Z,101948.30
2022-12-18T08:09:22.094Z,101954.23
2022-12-18T08:11:52.474Z,101956.16
2022-12-18T08:14:23.823Z,101957.90
2022-12-18T08:16:54.355Z,101959.19
2022-12-18T08:19:24.814Z,101964.39
2022-12-18T08:21:55.202Z,101971.08
2022-12-18T08:24:26.610Z,101973.81
2022-12-18T08:27:21.240Z,101977.33
2022-12-18T08:29:48.553Z,101971.30
2022-12-18T08:32:19.039Z,101977.48
2022-12-18T08:34:49.641Z,101983.95
2022-12-18T08:37:20.585Z,101975.84
2022-12-18T08:39:51.066Z,101977.88
2022-12-18T08:42:39.538Z,101979.05
2022-12-18T08:45:12.011Z,101973.08
2022-12-18T08:47:42.414Z,101957.02
2022-12-18T08:50:13.970Z,101950.23
2022-12-18T08:52:44.414Z,101942.36
2022-12-18T08:55:14.889Z,101935.10
2022-12-18T08:57:45.274Z,101933.94
2022-12-18T09:00:17.991Z,101933.44
2022-12-18T09:02:48.727Z,101934.78
2022-12-18T09:05:19.961Z,101932.46
2022-12-18T09:07:51.260Z,101922.17
2022-12-18T09:10:21.950Z,101911.14
2022-12-18T09:12:51.207Z,101904.55
2022-12-18T09:15:21.748Z,101899.20
2022-12-18T09:17:55.172Z,101894.47
2022-12-18T09:20:26.001Z,101890.75
2022-12-18T09:22:56.385Z,101893.04
2022-12-18T09:25:28.767Z,101898.09
2022-12-18T09:27:59.175Z,101900.64
2022-12-18T09:30:31.268Z,101901.69
2022-12-18T09:33:02.616Z,101904.64
2022-12-18T09:35:31.539Z,101914.52
2022-12-18T09:38:02.148Z,101921.22
2022-12-18T09:40:37.900Z,101922.27
2022-12-18T09:43:13.002Z,101919.92
2022-12-18T09:45:47.987Z,101925.31
2022-12-18T09:48:25.866Z,101920.85
2022-12-18T09:51:01.720Z,101921.45
2022-12-18T09:53:37.679Z,101935.80
2022-12-18T09:56:13.440Z,101931.09
2022-12-18T09:58:50.828Z,101942.13
2022-12-18T10:01:25.101Z,101951.92
2022-12-18T10:03:56.444Z,101953.71
2022-12-18T10:06:29.242Z,101957.55
2022-12-18T10:09:08.053Z,101949.54
2022-12-18T10:11:51.157Z,101947.17
2022-12-18T10:14:30.429Z,101946.80
2022-12-18T10:17:08.980Z,101945.73
2022-12-18T10:19:50.512Z,101943.56
2022-12-18T10:22:40.804Z,101946.95
2022-12-18T10:25:23.121Z,101945.23
2022-12-18T10:27:57.319Z,101947.64
2022-12-18T10:30:28.734Z,101941.06
2022-12-18T10:33:04.938Z,101945.29
2022-12-18T10:35:36.731Z,101944.13
2022-12-18T10:38:22.730Z,101937.20
2022-12-18T10:40:57.148Z,101936.27
2022-12-18T10:43:30.157Z,101929.33
2022-12-18T10:46:17.865Z,101928.64
2022-12-18T10:48:59.849Z,101922.11
2022-12-18T10:51:34.566Z,101902.14
2022-12-18T10:54:07.722Z,101899.98
2022-12-18T10:56:40.111Z,101895.64
2022-12-18T10:59:13.329Z,101895.73
2022-12-18T11:01:56.219Z,101907.12
2022-12-18T11:04:29.445Z,101910.52
2022-12-18T11:07:02.701Z,101909.16
2022-12-18T11:09:35.422Z,101907.34
2022-12-18T11:12:17.062Z,101910.25
2022-12-18T11:14:50.974Z,101909.13
2022-12-18T11:17:27.449Z,101903.76
2022-12-18T11:19:59.942Z,101913.83
2022-12-18T11:25:54.610Z,101911.65
2022-12-18T11:25:55.967Z,101918.64
2022-12-18T11:28:42.220Z,101915.02
2022-12-18T11:31:21.288Z,101910.48
2022-12-18T11:34:27.605Z,101903.73
2022-12-18T11:36:50.243Z,101915.58
2022-12-18T11:39:23.171Z,101916.02
2022-12-18T11:42:11.229Z,101913.27
2022-12-18T11:44:48.906Z,101919.92
2022-12-18T11:47:30.624Z,101921.89
2022-12-18T11:50:04.669Z,101911.87
2022-12-18T11:52:41.090Z,101904.77
2022-12-18T11:55:16.272Z,101899.77
2022-12-18T11:57:57.945Z,101890.05
2022-12-18T12:00:28.785Z,101877.20
2022-12-18T12:03:22.306Z,101873.08
2022-12-18T12:06:04.740Z,101877.59
2022-12-18T12:08:48.349Z,101884.28
2022-12-18T12:11:28.788Z,101885.44
2022-12-18T12:14:14.430Z,101895.69
2022-12-18T12:16:53.481Z,101896.42
2022-12-18T12:19:37.153Z,101889.38
2022-12-18T12:22:18.409Z,101883.17
2022-12-18T12:24:59.143Z,101884.77
2022-12-18T12:27:41.108Z,101888.50
2022-12-18T12:30:14.051Z,101894.36
2022-12-18T12:32:58.203Z,101889.32
2022-12-18T12:35:35.605Z,101885.89
2022-12-18T12:38:16.063Z,101880.10
2022-12-18T12:40:53.809Z,101881.90
2022-12-18T12:43:34.910Z,101886.34
2022-12-18T12:46:08.287Z,101882.56
2022-12-18T12:48:48.661Z,101875.66
2022-12-18T12:51:24.037Z,101869.50
2022-12-18T12:53:56.884Z,101864.41
2022-12-18T12:56:38.552Z,101866.73
2022-12-18T12:59:18.139Z,101842.41
2022-12-18T13:01:57.335Z,101836.26
2022-12-18T13:04:34.945Z,101830.99
2022-12-18T13:07:14.609Z,101826.45
2022-12-18T13:10:12.924Z,101814.84
2022-12-18T13:13:00.360Z,101810.12
2022-12-18T13:15:39.831Z,101805.08
2022-12-18T13:18:18.964Z,101803.53
2022-12-18T13:23:46.237Z,101785.90
2022-12-18T13:26:35.577Z,101785.98
2022-12-18T13:29:07.379Z,101775.77
2022-12-18T13:32:21.252Z,101787.62
2022-12-18T13:35:29.835Z,101785.10
2022-12-18T13:38:00.520Z,101783.14
2022-12-18T13:40:58.329Z,101781.41
2022-12-18T13:43:33.316Z,101781.16
2022-12-18T13:46:06.890Z,101782.66
2022-12-18T13:48:41.426Z,101787.52
2022-12-18T13:51:18.759Z,101786.17
2022-12-18T13:53:52.910Z,101785.66
2022-12-18T13:56:32.220Z,101784.39
2022-12-18T13:59:17.310Z,101781.99
2022-12-18T14:01:53.035Z,101786.38
2022-12-18T14:04:27.835Z,101789.77
2022-12-18T14:07:00.867Z,101789.66
2022-12-18T14:09:36.822Z,101782.94
2022-12-18T14:12:25.839Z,101786.22
2022-12-18T14:14:58.113Z,101791.73
2022-12-18T14:17:28.564Z,101789.10
2022-12-18T14:19:59.326Z,101786.40
2022-12-18T14:22:31.069Z,101779.56
2022-12-18T14:25:19.462Z,101784.09
2022-12-18T14:27:52.861Z,101789.48
2022-12-18T14:30:32.450Z,101790.06
2022-12-18T14:33:11.212Z,101789.39
2022-12-18T14:35:43.942Z,101789.58
2022-12-18T14:38:28.574Z,101793.98
2022-12-18T14:41:01.506Z,101798.46
2022-12-18T14:43:34.714Z,101799.73
2022-12-18T14:46:07.190Z,101798.64
2022-12-18T14:48:41.144Z,101794.75
2022-12-18T14:51:19.912Z,101793.42
2022-12-18T14:53:55.950Z,101791.53
2022-12-18T14:56:28.874Z,101791.23
2022-12-18T14:59:01.307Z,101794.89
2022-12-18T15:01:35.240Z,101796.13
2022-12-18T15:04:07.813Z,101790.19
2022-12-18T15:06:40.893Z,101779.97
2022-12-18T15:09:26.620Z,101775.25
2022-12-18T15:12:01.483Z,101771.82
2022-12-18T15:14:41.629Z,101774.16
2022-12-18T15:17:21.117Z,101771.23
2022-12-18T15:20:00.275Z,101763.34
2022-12-18T15:22:32.561Z,101759.52
2022-12-18T15:25:04.883Z,101759.88
2022-12-18T15:27:38.851Z,101764.23
2022-12-18T15:30:28.559Z,101763.30
2022-12-18T15:33:26.814Z,101762.33
2022-12-18T15:36:05.300Z,101759.29
2022-12-18T15:38:35.728Z,101759.54
2022-12-18T15:41:13.960Z,101759.64
2022-12-18T15:43:46.090Z,101761.46
2022-12-18T15:46:19.425Z,101766.02
2022-12-18T15:48:52.812Z,101767.83
2022-12-18T15:51:28.277Z,101769.82
2022-12-18T15:54:01.320Z,101762.54
2022-12-18T15:56:49.655Z,101760.06
2022-12-18T15:59:22.641Z,101760.67
2022-12-18T16:01:54.977Z,101762.84
2022-12-18T16:04:26.441Z,101763.66
2022-12-18T16:09:50.944Z,101759.60
2022-12-18T16:12:24.461Z,101756.89
2022-12-18T16:14:55.024Z,101759.54
2022-12-18T16:17:25.428Z,101762.20
2022-12-18T16:19:56.096Z,101766.23
2022-12-18T16:22:28.929Z,101759.60
2022-12-18T16:25:00.043Z,101751.44
2022-12-18T16:27:30.388Z,101749.95
2022-12-18T16:30:00.939Z,101753.98
2022-12-18T16:32:31.475Z,101748.38
2022-12-18T16:35:04.688Z,101748.63
2022-12-18T16:37:35.183Z,101741.00
2022-12-18T16:40:07.044Z,101739.30
2022-12-18T16:42:38.339Z,101737.61
2022-12-18T16:45:11.743Z,101741.28
2022-12-18T16:47:42.481Z,101739.08
2022-12-18T16:50:14.069Z,101736.19
2022-12-18T16:52:44.788Z,101728.98
2022-12-18T16:55:15.405Z,101725.21
2022-12-18T16:57:46.018Z,101709.41
2022-12-18T17:00:18.827Z,101709.30
2022-12-18T17:02:52.619Z,101713.42
2022-12-18T17:05:23.380Z,101715.20
2022-12-18T17:07:54.172Z,101717.48
2022-12-18T17:10:24.765Z,101715.81
2022-12-18T17:12:55.350Z,101714.85
2022-12-18T17:15:25.782Z,101709.42
2022-12-18T17:17:56.384Z,101705.90
2022-12-18T17:20:27.553Z,101701.80
2022-12-18T17:22:58.173Z,101708.40
2022-12-18T17:25:30.317Z,101708.64
2022-12-18T17:28:00.813Z,101705.94
2022-12-18T17:30:32.189Z,101714.25
2022-12-18T17:33:02.949Z,101717.76
2022-12-18T17:35:33.461Z,101716.48
2022-12-18T17:38:04.078Z,101716.39
2022-12-18T17:40:36.587Z,101709.40
2022-12-18T17:43:07.122Z,101711.66
2022-12-18T17:45:39.411Z,101715.62
2022-12-18T17:48:10.421Z,101715.95
2022-12-18T17:50:39.634Z,101716.27
2022-12-18T17:53:10.270Z,101710.76
2022-12-18T17:55:40.741Z,101708.09
2022-12-18T17:58:11.436Z,101702.36
2022-12-18T18:00:43.021Z,101694.73
2022-12-18T18:03:16.107Z,101693.96
2022-12-18T18:05:49.347Z,101691.84
2022-12-18T18:08:20.285Z,101696.92
2022-12-18T18:10:51.532Z,101702.35
2022-12-18T18:13:46.408Z,101706.96
2022-12-18T18:16:17.609Z,101697.64
2022-12-18T18:18:48.204Z,101691.75
2022-12-18T18:21:18.707Z,101683.52
2022-12-18T18:23:50.400Z,101679.23
2022-12-18T18:26:23.467Z,101680.27
2022-12-18T18:28:58.193Z,101683.45
2022-12-18T18:31:30.117Z,101684.52
2022-12-18T18:34:00.646Z,101686.31
2022-12-18T18:36:31.515Z,101686.05
2022-12-18T18:39:03.092Z,101690.27
2022-12-18T18:41:33.633Z,101697.70
2022-12-18T18:44:04.235Z,101697.92
2022-12-18T18:46:34.712Z,101701.54
2022-12-18T18:49:05.838Z,101705.33
2022-12-18T18:51:36.476Z,101705.14
2022-12-18T18:54:07.277Z,101704.25
2022-12-18T18:57:04.000Z,101699.10
2022-12-18T18:59:31.999Z,101697.35
2022-12-18T19:02:04.524Z,101689.23
2022-12-18T19:04:37.825Z,101687.32
2022-12-18T19:07:23.848Z,101683.17
2022-12-18T19:10:04.707Z,101677.83
2022-12-18T19:12:56.654Z,101664.39
2022-12-18T19:15:27.256Z,101659.76
2022-12-18T19:17:58.110Z,101659.27
2022-12-18T19:20:27.721Z,101656.39
2022-12-18T19:22:59.329Z,101649.16
2022-12-18T19:25:40.370Z,101641.60
2022-12-18T19:28:21.421Z,101632.01
2022-12-18T19:30:58.576Z,101627.77
2022-12-18T19:33:43.133Z,101630.91
2022-12-18T19:36:18.256Z,101642.02
2022-12-18T19:38:49.585Z,101640.67
2022-12-18T19:41:18.682Z,101640.56
2022-12-18T19:43:50.748Z,101632.35
2022-12-18T19:46:23.356Z,101635.98
2022-12-18T19:48:54.328Z,101634.14
2022-12-18T19:51:26.811Z,101628.83
2022-12-18T19:53:59.940Z,101634.59
2022-12-18T19:56:34.280Z,101631.16
2022-12-18T19:59:05.932Z,101632.56
2022-12-18T20:01:39.486Z,101635.84
2022-12-18T20:04:10.230Z,101628.79
2022-12-18T20:06:50.089Z,101625.36
2022-12-18T20:09:21.720Z,101627.48
2022-12-18T20:11:53.329Z,101615.83
2022-12-18T20:14:24.195Z,101622.02
2022-12-18T20:16:54.905Z,101616.36
2022-12-18T20:19:27.821Z,101597.48
2022-12-18T20:21:58.347Z,101616.75
2022-12-18T20:24:28.744Z,101610.58
2022-12-18T20:26:59.358Z,101622.77
2022-12-18T20:29:30.669Z,101615.83
2022-12-18T20:32:01.265Z,101626.81
2022-12-18T20:34:32.081Z,101632.27
2022-12-18T20:37:03.045Z,101621.41
2022-12-18T20:39:34.768Z,101628.26
2022-12-18T20:42:05.740Z,101631.34
2022-12-18T20:44:36.502Z,101617.40
2022-12-18T20:47:08.563Z,101638.48
2022-12-18T20:49:39.699Z,101643.79
2022-12-18T20:52:15.874Z,101637.61
2022-12-18T20:54:46.542Z,101633.79
2022-12-18T20:57:16.956Z,101633.60
2022-12-18T20:59:48.425Z,101614.85
2022-12-18T21:02:19.517Z,101607.82
2022-12-18T21:04:50.921Z,101600.36
2022-12-18T21:07:19.977Z,101598.88
2022-12-18T21:09:50.508Z,101598.64
2022-12-18T21:12:45.224Z,101600.60
2022-12-18T21:15:28.752Z,101602.11
2022-12-18T21:17:59.724Z,101604.63
2022-12-18T21:20:30.460Z,101610.41
2022-12-18T21:23:15.825Z,101607.26
2022-12-18T21:25:47.575Z,101618.23
2022-12-18T21:28:21.992Z,101632.17
2022-12-18T21:30:52.917Z,101630.61
2022-12-18T21:33:23.627Z,101628.20
2022-12-18T21:35:54.340Z,101650.86
2022-12-18T21:38:25.988Z,101633.30
2022-12-18T21:40:56.472Z,101620.20
2022-12-18T21:43:44.873Z,101620.35
2022-12-18T21:46:15.551Z,101620.66
2022-12-18T21:48:46.340Z,101617.34
2022-12-18T21:51:17.047Z,101607.80
2022-12-18T21:53:47.527Z,101609.10
2022-12-18T21:56:19.717Z,101603.66
2022-12-18T21:58:55.410Z,101597.54
2022-12-18T22:01:32.655Z,101593.08
2022-12-18T22:04:08.493Z,101599.45
2022-12-18T22:06:39.129Z,101604.86
2022-12-18T22:09:10.055Z,101601.11
2022-12-18T22:11:40.570Z,101612.01
2022-12-18T22:14:11.555Z,101628.27
2022-12-18T22:16:42.962Z,101629.68
2022-12-18T22:19:14.922Z,101639.19
2022-12-18T22:21:45.896Z,101636.78
2022-12-18T22:24:16.550Z,101623.69
2022-12-18T22:26:48.192Z,101616.95
2022-12-18T22:29:38.472Z,101618.88
2022-12-18T22:32:11.474Z,101610.52
2022-12-18T22:34:44.267Z,101607.27
2022-12-18T22:37:14.827Z,101619.17
2022-12-18T22:39:45.289Z,101622.16
2022-12-18T22:42:15.827Z,101617.05
2022-12-18T22:44:46.469Z,101620.23
2022-12-18T22:47:16.975Z,101612.73
2022-12-18T22:49:47.747Z,101611.77
2022-12-18T22:52:18.337Z,101612.20
2022-12-18T22:54:53.293Z,101610.24
2022-12-18T22:57:24.747Z,101612.40
2022-12-18T22:59:56.681Z,101609.41
2022-12-18T23:02:27.182Z,101604.48
2022-12-18T23:04:57.753Z,101605.08
2022-12-18T23:07:28.160Z,101604.27
2022-12-18T23:10:00.618Z,101602.76
2022-12-18T23:12:31.651Z,101597.11
2022-12-18T23:15:04.239Z,101597.36
2022-12-18T23:17:35.399Z,101592.95
2022-12-18T23:20:07.212Z,101592.65
2022-12-18T23:22:38.139Z,101589.92
2022-12-18T23:25:09.701Z,101588.93
2022-12-18T23:27:40.176Z,101590.02
2022-12-18T23:30:15.020Z,101591.92
2022-12-18T23:32:46.447Z,101592.27
2022-12-18T23:35:17.071Z,101590.64
2022-12-18T23:37:59.501Z,101584.13
2022-12-18T23:40:31.143Z,101578.17
2022-12-18T23:43:02.412Z,101571.31
2022-12-18T23:45:32.365Z,101573.08
2022-12-18T23:48:02.927Z,101571.06
2022-12-18T23:50:35.371Z,101560.38
2022-12-18T23:53:06.434Z,101561.77
2022-12-18T23:55:41.530Z,101563.02
2022-12-18T23:58:19.082Z,101555.79
